sensor_id;sensor_type;location;lat;lon;timestamp;temperature;humidity
23156;DHT22;11746;50.876;4.246;2023-08-24T00:02:20;22.00;99.90
23156;DHT22;11746;50.876;4.246;2023-08-24T00:04:49;22.00;99.90
23156;DHT22;11746;50.876;4.246;2023-08-24T00:07:14;22.00;99.90
23156;DHT22;11746;50.876;4.246;2023-08-24T00:09:40;22.00;99.90
23156;DHT22;11746;50.876;4.246;2023-08-24T00:12:06;22.00;99.90
23156;DHT22;11746;50.876;4.246;2023-08-24T00:14:32;22.00;99.90
23156;DHT22;11746;50.876;4.246;2023-08-24T00:16:57;22.00;99.90
23156;DHT22;11746;50.876;4.246;2023-08-24T00:19:25;22.10;99.90
23156;DHT22;11746;50.876;4.246;2023-08-24T00:21:51;22.30;99.90
23156;DHT22;11746;50.876;4.246;2023-08-24T00:24:17;22.40;99.90
23156;DHT22;11746;50.876;4.246;2023-08-24T00:26:45;22.40;99.90
23156;DHT22;11746;50.876;4.246;2023-08-24T00:29:11;22.20;99.90
23156;DHT22;11746;50.876;4.246;2023-08-24T00:31:36;22.10;99.90
23156;DHT22;11746;50.876;4.246;2023-08-24T00:34:03;22.00;99.90
23156;DHT22;11746;50.876;4.246;2023-08-24T00:36:28;22.00;99.90
23156;DHT22;11746;50.876;4.246;2023-08-24T00:38:54;22.00;99.90
23156;DHT22;11746;50.876;4.246;2023-08-24T00:41:20;21.90;99.90
23156;DHT22;11746;50.876;4.246;2023-08-24T00:43:46;22.00;99.90
23156;DHT22;11746;50.876;4.246;2023-08-24T00:46:13;21.90;99.90
23156;DHT22;11746;50.876;4.246;2023-08-24T00:48:38;22.00;99.90
23156;DHT22;11746;50.876;4.246;2023-08-24T00:51:06;22.00;99.90
23156;DHT22;11746;50.876;4.246;2023-08-24T00:53:32;22.10;99.90
23156;DHT22;11746;50.876;4.246;2023-08-24T00:55:58;22.10;99.90
23156;DHT22;11746;50.876;4.246;2023-08-24T00:58:27;22.30;99.90
23156;DHT22;11746;50.876;4.246;2023-08-24T01:00:54;22.30;99.90
23156;DHT22;11746;50.876;4.246;2023-08-24T01:03:24;22.50;99.90
23156;DHT22;11746;50.876;4.246;2023-08-24T01:05:52;22.40;99.90
23156;DHT22;11746;50.876;4.246;2023-08-24T01:08:19;22.40;99.90
23156;DHT22;11746;50.876;4.246;2023-08-24T01:13:54;22.50;99.90
23156;DHT22;11746;50.876;4.246;2023-08-24T01:16:16;22.50;99.90
23156;DHT22;11746;50.876;4.246;2023-08-24T01:18:46;22.50;99.90
23156;DHT22;11746;50.876;4.246;2023-08-24T01:21:13;22.40;99.90
23156;DHT22;11746;50.876;4.246;2023-08-24T01:23:46;22.40;99.90
23156;DHT22;11746;50.876;4.246;2023-08-24T01:26:17;22.50;99.90
23156;DHT22;11746;50.876;4.246;2023-08-24T01:28:45;22.50;99.90
23156;DHT22;11746;50.876;4.246;2023-08-24T01:31:10;22.40;99.90
23156;DHT22;11746;50.876;4.246;2023-08-24T01:33:39;22.40;99.90
23156;DHT22;11746;50.876;4.246;2023-08-24T01:36:06;22.40;99.90
23156;DHT22;11746;50.876;4.246;2023-08-24T01:38:32;22.30;99.90
23156;DHT22;11746;50.876;4.246;2023-08-24T01:41:08;22.40;99.90
23156;DHT22;11746;50.876;4.246;2023-08-24T01:43:36;22.50;99.90
23156;DHT22;11746;50.876;4.246;2023-08-24T01:46:09;22.50;99.90
23156;DHT22;11746;50.876;4.246;2023-08-24T01:48:41;22.50;99.90
23156;DHT22;11746;50.876;4.246;2023-08-24T01:51:07;22.50;99.90
23156;DHT22;11746;50.876;4.246;2023-08-24T01:53:36;22.60;99.90
23156;DHT22;11746;50.876;4.246;2023-08-24T01:56:11;22.50;99.90
23156;DHT22;11746;50.876;4.246;2023-08-24T01:58:36;22.50;99.90
23156;DHT22;11746;50.876;4.246;2023-08-24T02:01:05;22.60;99.90
23156;DHT22;11746;50.876;4.246;2023-08-24T02:03:33;22.80;99.90
23156;DHT22;11746;50.876;4.246;2023-08-24T02:05:58;23.10;99.90
23156;DHT22;11746;50.876;4.246;2023-08-24T02:08:26;23.10;99.90
23156;DHT22;11746;50.876;4.246;2023-08-24T02:10:55;23.00;99.90
23156;DHT22;11746;50.876;4.246;2023-08-24T02:13:22;22.60;99.90
23156;DHT22;11746;50.876;4.246;2023-08-24T02:15:51;22.10;99.90
23156;DHT22;11746;50.876;4.246;2023-08-24T02:18:25;21.90;99.90
23156;DHT22;11746;50.876;4.246;2023-08-24T02:20:51;21.60;99.90
23156;DHT22;11746;50.876;4.246;2023-08-24T02:23:19;21.40;99.90
23156;DHT22;11746;50.876;4.246;2023-08-24T02:25:45;21.40;99.90
23156;DHT22;11746;50.876;4.246;2023-08-24T02:28:13;21.50;99.90
23156;DHT22;11746;50.876;4.246;2023-08-24T02:30:38;21.50;99.90
23156;DHT22;11746;50.876;4.246;2023-08-24T02:33:06;21.70;99.90
23156;DHT22;11746;50.876;4.246;2023-08-24T02:35:33;21.80;99.90
23156;DHT22;11746;50.876;4.246;2023-08-24T02:37:58;21.90;99.90
23156;DHT22;11746;50.876;4.246;2023-08-24T02:40:24;21.90;99.90
23156;DHT22;11746;50.876;4.246;2023-08-24T02:42:49;22.00;99.90
23156;DHT22;11746;50.876;4.246;2023-08-24T02:45:15;21.90;99.90
23156;DHT22;11746;50.876;4.246;2023-08-24T02:47:41;21.90;99.90
23156;DHT22;11746;50.876;4.246;2023-08-24T02:50:09;21.90;99.90
23156;DHT22;11746;50.876;4.246;2023-08-24T02:52:38;21.80;99.90
23156;DHT22;11746;50.876;4.246;2023-08-24T02:55:04;21.90;99.90
23156;DHT22;11746;50.876;4.246;2023-08-24T02:57:30;21.80;99.90
23156;DHT22;11746;50.876;4.246;2023-08-24T02:59:56;22.10;99.90
23156;DHT22;11746;50.876;4.246;2023-08-24T03:02:26;22.10;99.90
23156;DHT22;11746;50.876;4.246;2023-08-24T03:04:51;22.00;99.90
23156;DHT22;11746;50.876;4.246;2023-08-24T03:07:17;21.90;99.90
23156;DHT22;11746;50.876;4.246;2023-08-24T03:09:45;21.70;99.90
23156;DHT22;11746;50.876;4.246;2023-08-24T03:12:16;21.80;99.90
23156;DHT22;11746;50.876;4.246;2023-08-24T03:14:41;22.00;99.90
23156;DHT22;11746;50.876;4.246;2023-08-24T03:17:07;21.90;99.90
23156;DHT22;11746;50.876;4.246;2023-08-24T03:19:32;21.70;99.90
23156;DHT22;11746;50.876;4.246;2023-08-24T03:22:00;21.70;99.90
23156;DHT22;11746;50.876;4.246;2023-08-24T03:24:26;21.80;99.90
23156;DHT22;11746;50.876;4.246;2023-08-24T03:26:56;21.70;99.90
23156;DHT22;11746;50.876;4.246;2023-08-24T03:29:22;21.80;99.90
23156;DHT22;11746;50.876;4.246;2023-08-24T03:31:47;21.60;99.90
23156;DHT22;11746;50.876;4.246;2023-08-24T03:34:13;21.50;99.90
23156;DHT22;11746;50.876;4.246;2023-08-24T03:36:39;21.40;99.90
23156;DHT22;11746;50.876;4.246;2023-08-24T03:39:06;21.50;99.90
23156;DHT22;11746;50.876;4.246;2023-08-24T03:41:32;21.60;99.90
23156;DHT22;11746;50.876;4.246;2023-08-24T03:43:59;21.60;99.90
23156;DHT22;11746;50.876;4.246;2023-08-24T03:46:24;21.60;99.90
23156;DHT22;11746;50.876;4.246;2023-08-24T03:48:50;21.20;99.90
23156;DHT22;11746;50.876;4.246;2023-08-24T03:51:18;21.10;99.90
23156;DHT22;11746;50.876;4.246;2023-08-24T03:53:44;21.10;99.90
23156;DHT22;11746;50.876;4.246;2023-08-24T03:56:10;21.30;99.90
23156;DHT22;11746;50.876;4.246;2023-08-24T03:58:38;21.50;99.90
23156;DHT22;11746;50.876;4.246;2023-08-24T04:01:03;21.70;99.90
23156;DHT22;11746;50.876;4.246;2023-08-24T04:03:29;21.70;99.90
23156;DHT22;11746;50.876;4.246;2023-08-24T04:05:55;21.60;99.90
23156;DHT22;11746;50.876;4.246;2023-08-24T04:08:22;21.60;99.90
23156;DHT22;11746;50.876;4.246;2023-08-24T04:10:49;21.50;99.90
23156;DHT22;11746;50.876;4.246;2023-08-24T04:13:14;21.40;99.90
23156;DHT22;11746;50.876;4.246;2023-08-24T04:15:42;21.40;99.90
23156;DHT22;11746;50.876;4.246;2023-08-24T04:18:10;21.50;99.90
23156;DHT22;11746;50.876;4.246;2023-08-24T04:20:42;21.50;99.90
23156;DHT22;11746;50.876;4.246;2023-08-24T04:23:13;21.50;99.90
23156;DHT22;11746;50.876;4.246;2023-08-24T04:25:41;21.40;99.90
23156;DHT22;11746;50.876;4.246;2023-08-24T04:28:08;21.40;99.90
23156;DHT22;11746;50.876;4.246;2023-08-24T04:30:34;21.20;99.90
23156;DHT22;11746;50.876;4.246;2023-08-24T04:33:00;21.30;99.90
23156;DHT22;11746;50.876;4.246;2023-08-24T04:35:33;21.30;99.90
23156;DHT22;11746;50.876;4.246;2023-08-24T04:37:58;21.10;99.90
23156;DHT22;11746;50.876;4.246;2023-08-24T04:40:24;21.00;99.90
23156;DHT22;11746;50.876;4.246;2023-08-24T04:42:50;21.00;99.90
23156;DHT22;11746;50.876;4.246;2023-08-24T04:45:18;20.90;99.90
23156;DHT22;11746;50.876;4.246;2023-08-24T04:47:46;20.90;99.90
23156;DHT22;11746;50.876;4.246;2023-08-24T04:50:12;21.10;99.90
23156;DHT22;11746;50.876;4.246;2023-08-24T04:52:37;21.10;99.90
23156;DHT22;11746;50.876;4.246;2023-08-24T04:55:05;21.10;99.90
23156;DHT22;11746;50.876;4.246;2023-08-24T04:57:33;21.00;99.90
23156;DHT22;11746;50.876;4.246;2023-08-24T04:59:59;20.90;99.90
23156;DHT22;11746;50.876;4.246;2023-08-24T05:02:24;20.90;99.90
23156;DHT22;11746;50.876;4.246;2023-08-24T05:04:50;20.80;99.90
23156;DHT22;11746;50.876;4.246;2023-08-24T05:07:16;20.80;99.90
23156;DHT22;11746;50.876;4.246;2023-08-24T05:09:42;20.90;99.90
23156;DHT22;11746;50.876;4.246;2023-08-24T05:12:10;20.90;99.90
23156;DHT22;11746;50.876;4.246;2023-08-24T05:14:36;20.90;99.90
23156;DHT22;11746;50.876;4.246;2023-08-24T05:17:01;20.80;99.90
23156;DHT22;11746;50.876;4.246;2023-08-24T05:19:27;20.90;99.90
23156;DHT22;11746;50.876;4.246;2023-08-24T05:21:53;21.00;99.90
23156;DHT22;11746;50.876;4.246;2023-08-24T05:24:19;21.00;99.90
23156;DHT22;11746;50.876;4.246;2023-08-24T05:26:44;21.10;99.90
23156;DHT22;11746;50.876;4.246;2023-08-24T05:29:10;21.10;99.90
23156;DHT22;11746;50.876;4.246;2023-08-24T05:31:36;21.20;99.90
23156;DHT22;11746;50.876;4.246;2023-08-24T05:34:03;21.20;99.90
23156;DHT22;11746;50.876;4.246;2023-08-24T05:36:36;21.30;99.90
23156;DHT22;11746;50.876;4.246;2023-08-24T05:39:04;21.40;99.90
23156;DHT22;11746;50.876;4.246;2023-08-24T05:41:30;21.50;99.90
23156;DHT22;11746;50.876;4.246;2023-08-24T05:44:00;21.60;99.90
23156;DHT22;11746;50.876;4.246;2023-08-24T05:46:26;21.80;99.90
23156;DHT22;11746;50.876;4.246;2023-08-24T05:48:51;22.00;99.90
23156;DHT22;11746;50.876;4.246;2023-08-24T05:51:17;22.10;99.90
23156;DHT22;11746;50.876;4.246;2023-08-24T05:53:45;22.10;99.90
23156;DHT22;11746;50.876;4.246;2023-08-24T05:56:12;22.20;99.90
23156;DHT22;11746;50.876;4.246;2023-08-24T05:58:38;22.10;99.90
23156;DHT22;11746;50.876;4.246;2023-08-24T06:01:04;22.10;99.90
23156;DHT22;11746;50.876;4.246;2023-08-24T06:03:34;22.20;99.90
23156;DHT22;11746;50.876;4.246;2023-08-24T06:06:06;22.30;99.90
23156;DHT22;11746;50.876;4.246;2023-08-24T06:08:33;22.30;99.90
23156;DHT22;11746;50.876;4.246;2023-08-24T06:10:59;22.10;99.90
23156;DHT22;11746;50.876;4.246;2023-08-24T06:13:27;21.90;99.90
23156;DHT22;11746;50.876;4.246;2023-08-24T06:15:53;22.00;99.90
23156;DHT22;11746;50.876;4.246;2023-08-24T06:18:20;22.20;99.90
23156;DHT22;11746;50.876;4.246;2023-08-24T06:20:48;22.30;99.90
23156;DHT22;11746;50.876;4.246;2023-08-24T06:23:17;22.40;99.90
23156;DHT22;11746;50.876;4.246;2023-08-24T06:25:43;22.50;99.90
23156;DHT22;11746;50.876;4.246;2023-08-24T06:28:10;22.60;99.90
23156;DHT22;11746;50.876;4.246;2023-08-24T06:30:39;22.70;99.90
23156;DHT22;11746;50.876;4.246;2023-08-24T06:33:06;22.90;99.90
23156;DHT22;11746;50.876;4.246;2023-08-24T06:35:33;23.00;99.90
23156;DHT22;11746;50.876;4.246;2023-08-24T06:37:59;23.10;99.90
23156;DHT22;11746;50.876;4.246;2023-08-24T06:40:25;23.20;99.90
23156;DHT22;11746;50.876;4.246;2023-08-24T06:42:51;23.30;99.90
23156;DHT22;11746;50.876;4.246;2023-08-24T06:45:16;23.40;99.90
23156;DHT22;11746;50.876;4.246;2023-08-24T06:47:43;23.40;99.90
23156;DHT22;11746;50.876;4.246;2023-08-24T06:50:10;23.40;99.90
23156;DHT22;11746;50.876;4.246;2023-08-24T06:52:36;23.50;99.90
23156;DHT22;11746;50.876;4.246;2023-08-24T06:55:02;23.70;99.90
23156;DHT22;11746;50.876;4.246;2023-08-24T06:57:30;23.70;99.90
23156;DHT22;11746;50.876;4.246;2023-08-24T06:59:55;23.70;99.90
23156;DHT22;11746;50.876;4.246;2023-08-24T07:02:21;23.70;99.90
23156;DHT22;11746;50.876;4.246;2023-08-24T07:04:49;23.80;99.90
23156;DHT22;11746;50.876;4.246;2023-08-24T07:07:22;23.90;99.90
23156;DHT22;11746;50.876;4.246;2023-08-24T07:09:50;24.10;99.90
23156;DHT22;11746;50.876;4.246;2023-08-24T07:12:18;24.10;99.90
23156;DHT22;11746;50.876;4.246;2023-08-24T07:14:43;24.10;99.90
23156;DHT22;11746;50.876;4.246;2023-08-24T07:17:11;24.00;99.90
23156;DHT22;11746;50.876;4.246;2023-08-24T07:19:37;23.70;99.90
23156;DHT22;11746;50.876;4.246;2023-08-24T07:22:05;23.80;99.90
23156;DHT22;11746;50.876;4.246;2023-08-24T07:24:30;23.70;99.90
23156;DHT22;11746;50.876;4.246;2023-08-24T07:26:58;23.80;99.90
23156;DHT22;11746;50.876;4.246;2023-08-24T07:29:24;24.00;99.90
23156;DHT22;11746;50.876;4.246;2023-08-24T07:31:50;24.00;99.90
23156;DHT22;11746;50.876;4.246;2023-08-24T07:34:15;24.00;99.90
23156;DHT22;11746;50.876;4.246;2023-08-24T07:36:43;24.00;99.90
23156;DHT22;11746;50.876;4.246;2023-08-24T07:39:10;24.00;99.90
23156;DHT22;11746;50.876;4.246;2023-08-24T07:41:37;24.00;99.90
23156;DHT22;11746;50.876;4.246;2023-08-24T07:44:02;24.10;99.90
23156;DHT22;11746;50.876;4.246;2023-08-24T07:46:30;24.10;99.90
23156;DHT22;11746;50.876;4.246;2023-08-24T07:48:58;24.20;99.90
23156;DHT22;11746;50.876;4.246;2023-08-24T07:51:26;24.20;99.90
23156;DHT22;11746;50.876;4.246;2023-08-24T07:53:53;24.20;99.90
23156;DHT22;11746;50.876;4.246;2023-08-24T07:56:20;24.20;99.90
23156;DHT22;11746;50.876;4.246;2023-08-24T07:58:50;24.20;99.90
23156;DHT22;11746;50.876;4.246;2023-08-24T08:01:18;24.20;99.90
23156;DHT22;11746;50.876;4.246;2023-08-24T08:03:44;24.30;99.90
23156;DHT22;11746;50.876;4.246;2023-08-24T08:06:09;24.30;99.90
23156;DHT22;11746;50.876;4.246;2023-08-24T08:08:35;24.20;99.90
23156;DHT22;11746;50.876;4.246;2023-08-24T08:11:03;24.10;99.90
23156;DHT22;11746;50.876;4.246;2023-08-24T08:13:29;24.00;99.90
23156;DHT22;11746;50.876;4.246;2023-08-24T08:16:03;24.10;99.90
23156;DHT22;11746;50.876;4.246;2023-08-24T08:18:29;24.10;99.90
23156;DHT22;11746;50.876;4.246;2023-08-24T08:20:57;24.10;99.90
23156;DHT22;11746;50.876;4.246;2023-08-24T08:23:25;24.20;99.90
23156;DHT22;11746;50.876;4.246;2023-08-24T08:25:51;24.20;99.90
23156;DHT22;11746;50.876;4.246;2023-08-24T08:28:17;24.30;99.90
23156;DHT22;11746;50.876;4.246;2023-08-24T08:30:44;24.30;99.90
23156;DHT22;11746;50.876;4.246;2023-08-24T08:33:09;24.30;99.90
23156;DHT22;11746;50.876;4.246;2023-08-24T08:35:38;24.30;99.90
23156;DHT22;11746;50.876;4.246;2023-08-24T08:38:08;24.50;99.90
23156;DHT22;11746;50.876;4.246;2023-08-24T08:40:36;24.40;99.90
23156;DHT22;11746;50.876;4.246;2023-08-24T08:43:03;24.40;99.90
23156;DHT22;11746;50.876;4.246;2023-08-24T08:45:29;24.50;99.90
23156;DHT22;11746;50.876;4.246;2023-08-24T08:47:59;24.60;99.90
23156;DHT22;11746;50.876;4.246;2023-08-24T08:50:25;24.50;99.90
23156;DHT22;11746;50.876;4.246;2023-08-24T08:52:51;24.50;99.90
23156;DHT22;11746;50.876;4.246;2023-08-24T08:55:17;24.60;99.90
23156;DHT22;11746;50.876;4.246;2023-08-24T08:57:47;24.50;99.90
23156;DHT22;11746;50.876;4.246;2023-08-24T09:00:17;24.40;99.90
23156;DHT22;11746;50.876;4.246;2023-08-24T09:02:48;24.30;99.90
23156;DHT22;11746;50.876;4.246;2023-08-24T09:05:15;24.40;99.90
23156;DHT22;11746;50.876;4.246;2023-08-24T09:07:41;24.40;99.90
23156;DHT22;11746;50.876;4.246;2023-08-24T09:10:09;24.30;99.90
23156;DHT22;11746;50.876;4.246;2023-08-24T09:12:35;24.30;99.90
23156;DHT22;11746;50.876;4.246;2023-08-24T09:15:05;24.10;99.90
23156;DHT22;11746;50.876;4.246;2023-08-24T09:17:32;24.10;99.90
23156;DHT22;11746;50.876;4.246;2023-08-24T09:20:00;23.90;99.90
23156;DHT22;11746;50.876;4.246;2023-08-24T09:22:34;24.00;99.90
23156;DHT22;11746;50.876;4.246;2023-08-24T09:25:00;23.70;99.90
23156;DHT22;11746;50.876;4.246;2023-08-24T09:27:29;23.40;99.90
23156;DHT22;11746;50.876;4.246;2023-08-24T09:29:55;23.20;99.90
23156;DHT22;11746;50.876;4.246;2023-08-24T09:32:30;22.70;99.90
23156;DHT22;11746;50.876;4.246;2023-08-24T09:35:08;22.40;99.90
23156;DHT22;11746;50.876;4.246;2023-08-24T09:37:34;22.10;99.90
23156;DHT22;11746;50.876;4.246;2023-08-24T09:40:07;22.00;99.90
23156;DHT22;11746;50.876;4.246;2023-08-24T09:42:41;21.80;99.90
23156;DHT22;11746;50.876;4.246;2023-08-24T09:45:13;21.80;99.90
23156;DHT22;11746;50.876;4.246;2023-08-24T09:47:49;21.80;99.90
23156;DHT22;11746;50.876;4.246;2023-08-24T09:50:15;21.50;99.90
23156;DHT22;11746;50.876;4.246;2023-08-24T09:52:44;21.50;99.90
23156;DHT22;11746;50.876;4.246;2023-08-24T09:55:13;21.30;99.90
23156;DHT22;11746;50.876;4.246;2023-08-24T09:57:42;21.20;99.90
23156;DHT22;11746;50.876;4.246;2023-08-24T10:00:10;21.20;99.90
23156;DHT22;11746;50.876;4.246;2023-08-24T10:02:53;21.10;99.90
23156;DHT22;11746;50.876;4.246;2023-08-24T10:05:26;21.00;99.90
23156;DHT22;11746;50.876;4.246;2023-08-24T10:07:56;20.90;99.90
23156;DHT22;11746;50.876;4.246;2023-08-24T10:10:27;21.00;99.90
23156;DHT22;11746;50.876;4.246;2023-08-24T10:13:06;21.00;99.90
23156;DHT22;11746;50.876;4.246;2023-08-24T10:15:36;21.10;99.90
23156;DHT22;11746;50.876;4.246;2023-08-24T10:18:12;21.10;99.90
23156;DHT22;11746;50.876;4.246;2023-08-24T10:20:38;21.40;99.90
23156;DHT22;11746;50.876;4.246;2023-08-24T10:23:05;21.40;99.90
23156;DHT22;11746;50.876;4.246;2023-08-24T10:25:31;21.40;99.90
23156;DHT22;11746;50.876;4.246;2023-08-24T10:27:58;21.40;99.90
23156;DHT22;11746;50.876;4.246;2023-08-24T10:30:27;21.40;99.90
23156;DHT22;11746;50.876;4.246;2023-08-24T10:32:56;21.70;99.90
23156;DHT22;11746;50.876;4.246;2023-08-24T10:35:25;21.70;99.90
23156;DHT22;11746;50.876;4.246;2023-08-24T10:37:53;21.80;99.90
23156;DHT22;11746;50.876;4.246;2023-08-24T10:42:57;21.60;99.90
23156;DHT22;11746;50.876;4.246;2023-08-24T10:45:25;21.40;99.90
23156;DHT22;11746;50.876;4.246;2023-08-24T10:47:52;21.40;99.90
23156;DHT22;11746;50.876;4.246;2023-08-24T10:50:19;21.40;99.90
23156;DHT22;11746;50.876;4.246;2023-08-24T10:52:50;21.30;99.90
23156;DHT22;11746;50.876;4.246;2023-08-24T10:55:28;21.40;99.90
23156;DHT22;11746;50.876;4.246;2023-08-24T10:57:59;21.40;99.90
23156;DHT22;11746;50.876;4.246;2023-08-24T11:00:27;21.60;99.90
23156;DHT22;11746;50.876;4.246;2023-08-24T11:02:56;21.90;99.90
23156;DHT22;11746;50.876;4.246;2023-08-24T11:07:57;22.20;99.90
23156;DHT22;11746;50.876;4.246;2023-08-24T11:10:25;22.40;99.90
23156;DHT22;11746;50.876;4.246;2023-08-24T11:13:20;22.40;99.90
23156;DHT22;11746;50.876;4.246;2023-08-24T11:15:49;22.50;99.90
23156;DHT22;11746;50.876;4.246;2023-08-24T11:18:27;22.50;99.90
23156;DHT22;11746;50.876;4.246;2023-08-24T11:21:01;22.60;99.90
23156;DHT22;11746;50.876;4.246;2023-08-24T11:23:28;22.70;99.90
23156;DHT22;11746;50.876;4.246;2023-08-24T11:25:58;22.80;99.90
23156;DHT22;11746;50.876;4.246;2023-08-24T11:28:26;23.10;99.90
23156;DHT22;11746;50.876;4.246;2023-08-24T11:30:53;23.20;99.90
23156;DHT22;11746;50.876;4.246;2023-08-24T11:33:34;23.10;99.90
23156;DHT22;11746;50.876;4.246;2023-08-24T11:36:03;23.30;99.90
23156;DHT22;11746;50.876;4.246;2023-08-24T11:38:38;23.20;99.90
23156;DHT22;11746;50.876;4.246;2023-08-24T11:41:14;23.10;99.90
23156;DHT22;11746;50.876;4.246;2023-08-24T11:43:41;23.00;99.90
23156;DHT22;11746;50.876;4.246;2023-08-24T11:46:07;22.70;99.90
23156;DHT22;11746;50.876;4.246;2023-08-24T11:48:32;22.80;99.90
23156;DHT22;11746;50.876;4.246;2023-08-24T11:51:01;22.70;99.90
23156;DHT22;11746;50.876;4.246;2023-08-24T11:53:31;22.90;99.90
23156;DHT22;11746;50.876;4.246;2023-08-24T11:55:57;22.60;99.90
23156;DHT22;11746;50.876;4.246;2023-08-24T11:58:23;22.70;99.90
23156;DHT22;11746;50.876;4.246;2023-08-24T12:00:49;22.60;99.90
23156;DHT22;11746;50.876;4.246;2023-08-24T12:03:15;22.80;99.90
23156;DHT22;11746;50.876;4.246;2023-08-24T12:05:41;22.80;99.90
23156;DHT22;11746;50.876;4.246;2023-08-24T12:08:06;22.90;99.90
23156;DHT22;11746;50.876;4.246;2023-08-24T12:10:32;23.20;99.90
23156;DHT22;11746;50.876;4.246;2023-08-24T12:13:06;23.30;99.90
23156;DHT22;11746;50.876;4.246;2023-08-24T12:15:36;23.20;99.90
23156;DHT22;11746;50.876;4.246;2023-08-24T12:18:15;23.20;99.90
23156;DHT22;11746;50.876;4.246;2023-08-24T12:20:44;23.30;99.90
23156;DHT22;11746;50.876;4.246;2023-08-24T12:23:10;23.30;99.90
23156;DHT22;11746;50.876;4.246;2023-08-24T12:25:42;23.30;99.90
23156;DHT22;11746;50.876;4.246;2023-08-24T12:28:17;23.00;99.90
23156;DHT22;11746;50.876;4.246;2023-08-24T12:30:51;23.00;99.90
23156;DHT22;11746;50.876;4.246;2023-08-24T12:33:30;23.00;99.90
23156;DHT22;11746;50.876;4.246;2023-08-24T12:35:57;23.00;99.90
23156;DHT22;11746;50.876;4.246;2023-08-24T12:38:25;23.00;99.90
23156;DHT22;11746;50.876;4.246;2023-08-24T12:40:52;22.90;99.90
23156;DHT22;11746;50.876;4.246;2023-08-24T12:43:19;22.90;99.90
23156;DHT22;11746;50.876;4.246;2023-08-24T12:45:45;22.80;99.90
23156;DHT22;11746;50.876;4.246;2023-08-24T12:48:16;22.70;99.90
23156;DHT22;11746;50.876;4.246;2023-08-24T12:50:42;22.50;99.90
23156;DHT22;11746;50.876;4.246;2023-08-24T12:53:08;22.40;99.90
23156;DHT22;11746;50.876;4.246;2023-08-24T12:55:38;22.40;99.90
23156;DHT22;11746;50.876;4.246;2023-08-24T12:58:08;22.30;99.90
23156;DHT22;11746;50.876;4.246;2023-08-24T13:00:43;22.30;99.90
23156;DHT22;11746;50.876;4.246;2023-08-24T13:03:13;22.30;99.90
23156;DHT22;11746;50.876;4.246;2023-08-24T13:05:39;22.40;99.90
23156;DHT22;11746;50.876;4.246;2023-08-24T13:08:10;22.40;99.90
23156;DHT22;11746;50.876;4.246;2023-08-24T13:10:38;22.40;99.90
23156;DHT22;11746;50.876;4.246;2023-08-24T13:13:03;22.50;99.90
23156;DHT22;11746;50.876;4.246;2023-08-24T13:15:29;22.40;99.90
23156;DHT22;11746;50.876;4.246;2023-08-24T13:17:55;22.40;99.90
23156;DHT22;11746;50.876;4.246;2023-08-24T13:20:24;22.30;99.90
23156;DHT22;11746;50.876;4.246;2023-08-24T13:22:51;22.30;99.90
23156;DHT22;11746;50.876;4.246;2023-08-24T13:25:18;22.40;99.90
23156;DHT22;11746;50.876;4.246;2023-08-24T13:27:57;22.50;99.90
23156;DHT22;11746;50.876;4.246;2023-08-24T13:30:26;22.50;99.90
23156;DHT22;11746;50.876;4.246;2023-08-24T13:33:01;22.60;99.90
23156;DHT22;11746;50.876;4.246;2023-08-24T13:35:27;22.70;99.90
23156;DHT22;11746;50.876;4.246;2023-08-24T13:37:52;22.80;99.90
23156;DHT22;11746;50.876;4.246;2023-08-24T13:40:20;22.70;99.90
23156;DHT22;11746;50.876;4.246;2023-08-24T13:42:46;22.60;99.90
23156;DHT22;11746;50.876;4.246;2023-08-24T13:45:16;22.70;99.90
23156;DHT22;11746;50.876;4.246;2023-08-24T13:47:42;22.80;99.90
23156;DHT22;11746;50.876;4.246;2023-08-24T13:50:11;22.80;99.90
23156;DHT22;11746;50.876;4.246;2023-08-24T13:52:36;22.60;99.90
23156;DHT22;11746;50.876;4.246;2023-08-24T13:55:07;22.60;99.90
23156;DHT22;11746;50.876;4.246;2023-08-24T13:57:33;22.70;99.90
23156;DHT22;11746;50.876;4.246;2023-08-24T13:59:59;22.70;99.90
23156;DHT22;11746;50.876;4.246;2023-08-24T14:02:25;22.60;99.90
23156;DHT22;11746;50.876;4.246;2023-08-24T14:04:51;22.50;99.90
23156;DHT22;11746;50.876;4.246;2023-08-24T14:07:19;22.40;99.90
23156;DHT22;11746;50.876;4.246;2023-08-24T14:09:48;22.40;99.90
23156;DHT22;11746;50.876;4.246;2023-08-24T14:12:14;22.30;99.90
23156;DHT22;11746;50.876;4.246;2023-08-24T14:14:39;22.20;99.90
23156;DHT22;11746;50.876;4.246;2023-08-24T14:17:07;22.10;99.90
23156;DHT22;11746;50.876;4.246;2023-08-24T14:19:33;22.10;99.90
23156;DHT22;11746;50.876;4.246;2023-08-24T14:22:01;22.10;99.90
23156;DHT22;11746;50.876;4.246;2023-08-24T14:24:27;22.10;99.90
23156;DHT22;11746;50.876;4.246;2023-08-24T14:26:52;22.20;99.90
23156;DHT22;11746;50.876;4.246;2023-08-24T14:29:18;22.50;99.90
23156;DHT22;11746;50.876;4.246;2023-08-24T14:31:43;22.70;99.90
23156;DHT22;11746;50.876;4.246;2023-08-24T14:34:09;22.80;99.90
23156;DHT22;11746;50.876;4.246;2023-08-24T14:36:35;22.80;99.90
23156;DHT22;11746;50.876;4.246;2023-08-24T14:39:04;22.80;99.90
23156;DHT22;11746;50.876;4.246;2023-08-24T14:41:30;22.70;99.90
23156;DHT22;11746;50.876;4.246;2023-08-24T14:43:58;22.70;99.90
23156;DHT22;11746;50.876;4.246;2023-08-24T14:46:24;22.60;99.90
23156;DHT22;11746;50.876;4.246;2023-08-24T14:48:51;22.70;99.90
23156;DHT22;11746;50.876;4.246;2023-08-24T14:51:17;22.50;99.90
23156;DHT22;11746;50.876;4.246;2023-08-24T14:53:45;22.70;99.90
23156;DHT22;11746;50.876;4.246;2023-08-24T14:56:13;22.80;99.90
23156;DHT22;11746;50.876;4.246;2023-08-24T14:58:41;22.90;99.90
23156;DHT22;11746;50.876;4.246;2023-08-24T15:01:06;23.00;99.90
23156;DHT22;11746;50.876;4.246;2023-08-24T15:06:02;23.10;99.90
23156;DHT22;11746;50.876;4.246;2023-08-24T15:08:29;23.10;99.90
23156;DHT22;11746;50.876;4.246;2023-08-24T15:10:56;23.10;99.90
23156;DHT22;11746;50.876;4.246;2023-08-24T15:13:23;23.20;99.90
23156;DHT22;11746;50.876;4.246;2023-08-24T15:15:49;23.10;99.90
23156;DHT22;11746;50.876;4.246;2023-08-24T15:18:17;23.10;99.90
23156;DHT22;11746;50.876;4.246;2023-08-24T15:20:45;23.00;99.90
23156;DHT22;11746;50.876;4.246;2023-08-24T15:23:27;23.00;99.90
23156;DHT22;11746;50.876;4.246;2023-08-24T15:25:58;22.90;99.90
23156;DHT22;11746;50.876;4.246;2023-08-24T15:28:24;23.20;99.90
23156;DHT22;11746;50.876;4.246;2023-08-24T15:30:50;23.20;99.90
23156;DHT22;11746;50.876;4.246;2023-08-24T15:33:19;23.10;99.90
23156;DHT22;11746;50.876;4.246;2023-08-24T15:35:47;23.30;99.90
23156;DHT22;11746;50.876;4.246;2023-08-24T15:38:15;23.60;99.90
23156;DHT22;11746;50.876;4.246;2023-08-24T15:40:41;23.80;99.90
23156;DHT22;11746;50.876;4.246;2023-08-24T15:43:09;24.30;99.90
23156;DHT22;11746;50.876;4.246;2023-08-24T15:45:37;24.70;99.90